sensor_id;sensor_type;location;lat;lon;timestamp;P1;durP1;ratioP1;P2;durP2;ratioP2
30998;SDS011;20549;50.042;8.968;2024-01-30T00:01:46;7.37;;;5.93;;
30998;SDS011;20549;50.042;8.968;2024-01-30T00:04:12;7.73;;;6.43;;
30998;SDS011;20549;50.042;8.968;2024-01-30T00:06:39;9.83;;;6.33;;
30998;SDS011;20549;50.042;8.968;2024-01-30T00:09:05;6.87;;;5.77;;
30998;SDS011;20549;50.042;8.968;2024-01-30T00:11:32;8.27;;;6.80;;
30998;SDS011;20549;50.042;8.968;2024-01-30T00:13:59;8.43;;;6.47;;
30998;SDS011;20549;50.042;8.968;2024-01-30T00:16:26;6.77;;;5.53;;
30998;SDS011;20549;50.042;8.968;2024-01-30T00:18:52;8.53;;;6.50;;
30998;SDS011;20549;50.042;8.968;2024-01-30T00:21:19;6.93;;;6.20;;
30998;SDS011;20549;50.042;8.968;2024-01-30T00:23:45;11.07;;;6.43;;
30998;SDS011;20549;50.042;8.968;2024-01-30T00:26:12;6.57;;;5.97;;
30998;SDS011;20549;50.042;8.968;2024-01-30T00:28:38;5.80;;;5.30;;
30998;SDS011;20549;50.042;8.968;2024-01-30T00:31:05;7.70;;;5.63;;
30998;SDS011;20549;50.042;8.968;2024-01-30T00:33:31;6.43;;;5.73;;
30998;SDS011;20549;50.042;8.968;2024-01-30T00:35:58;7.33;;;6.00;;
30998;SDS011;20549;50.042;8.968;2024-01-30T00:38:24;6.87;;;5.57;;
30998;SDS011;20549;50.042;8.968;2024-01-30T00:40:51;8.97;;;5.97;;
30998;SDS011;20549;50.042;8.968;2024-01-30T00:43:18;7.60;;;6.50;;
30998;SDS011;20549;50.042;8.968;2024-01-30T00:45:44;7.67;;;5.70;;
30998;SDS011;20549;50.042;8.968;2024-01-30T00:48:11;8.67;;;6.60;;
30998;SDS011;20549;50.042;8.968;2024-01-30T00:50:37;6.80;;;6.10;;
30998;SDS011;20549;50.042;8.968;2024-01-30T00:53:04;7.33;;;5.77;;
30998;SDS011;20549;50.042;8.968;2024-01-30T00:55:31;6.83;;;5.70;;
30998;SDS011;20549;50.042;8.968;2024-01-30T00:57:57;9.77;;;7.03;;
30998;SDS011;20549;50.042;8.968;2024-01-30T01:00:24;9.27;;;5.87;;
30998;SDS011;20549;50.042;8.968;2024-01-30T01:02:50;8.47;;;6.10;;
30998;SDS011;20549;50.042;8.968;2024-01-30T01:05:17;8.23;;;6.90;;
30998;SDS011;20549;50.042;8.968;2024-01-30T01:07:43;7.73;;;6.20;;
30998;SDS011;20549;50.042;8.968;2024-01-30T01:10:10;8.50;;;6.97;;
30998;SDS011;20549;50.042;8.968;2024-01-30T01:12:37;7.40;;;6.57;;
30998;SDS011;20549;50.042;8.968;2024-01-30T01:15:03;9.07;;;6.80;;
30998;SDS011;20549;50.042;8.968;2024-01-30T01:17:30;7.87;;;6.53;;
30998;SDS011;20549;50.042;8.968;2024-01-30T01:19:56;7.43;;;6.37;;
30998;SDS011;20549;50.042;8.968;2024-01-30T01:22:23;9.20;;;6.90;;
30998;SDS011;20549;50.042;8.968;2024-01-30T01:24:50;9.37;;;7.00;;
30998;SDS011;20549;50.042;8.968;2024-01-30T01:27:16;7.60;;;6.80;;
30998;SDS011;20549;50.042;8.968;2024-01-30T01:29:43;7.13;;;6.43;;
30998;SDS011;20549;50.042;8.968;2024-01-30T01:32:09;6.90;;;6.20;;
30998;SDS011;20549;50.042;8.968;2024-01-30T01:34:36;9.50;;;6.13;;
30998;SDS011;20549;50.042;8.968;2024-01-30T01:37:02;9.63;;;6.77;;
30998;SDS011;20549;50.042;8.968;2024-01-30T01:39:29;7.37;;;6.47;;
30998;SDS011;20549;50.042;8.968;2024-01-30T01:41:56;7.70;;;6.03;;
30998;SDS011;20549;50.042;8.968;2024-01-30T01:44:22;7.67;;;6.37;;
30998;SDS011;20549;50.042;8.968;2024-01-30T01:46:49;7.87;;;7.07;;
30998;SDS011;20549;50.042;8.968;2024-01-30T01:49:15;8.57;;;6.17;;
30998;SDS011;20549;50.042;8.968;2024-01-30T01:51:42;7.23;;;6.17;;
30998;SDS011;20549;50.042;8.968;2024-01-30T01:54:09;8.20;;;6.50;;
30998;SDS011;20549;50.042;8.968;2024-01-30T01:56:35;7.27;;;6.10;;
30998;SDS011;20549;50.042;8.968;2024-01-30T01:59:05;6.63;;;5.97;;
30998;SDS011;20549;50.042;8.968;2024-01-30T02:01:32;9.73;;;6.10;;
30998;SDS011;20549;50.042;8.968;2024-01-30T02:03:58;7.27;;;5.80;;
30998;SDS011;20549;50.042;8.968;2024-01-30T02:06:24;7.50;;;5.77;;
30998;SDS011;20549;50.042;8.968;2024-01-30T02:08:51;6.63;;;5.93;;
30998;SDS011;20549;50.042;8.968;2024-01-30T02:11:21;7.50;;;6.17;;
30998;SDS011;20549;50.042;8.968;2024-01-30T02:13:47;7.73;;;6.27;;
30998;SDS011;20549;50.042;8.968;2024-01-30T02:16:13;6.23;;;5.53;;
30998;SDS011;20549;50.042;8.968;2024-01-30T02:18:40;8.47;;;6.10;;
30998;SDS011;20549;50.042;8.968;2024-01-30T02:21:09;7.00;;;6.00;;
30998;SDS011;20549;50.042;8.968;2024-01-30T02:23:35;7.20;;;5.87;;
30998;SDS011;20549;50.042;8.968;2024-01-30T02:26:02;7.07;;;6.37;;
30998;SDS011;20549;50.042;8.968;2024-01-30T02:28:29;7.37;;;6.37;;
30998;SDS011;20549;50.042;8.968;2024-01-30T02:30:55;7.30;;;6.30;;
30998;SDS011;20549;50.042;8.968;2024-01-30T02:33:22;7.53;;;6.57;;
30998;SDS011;20549;50.042;8.968;2024-01-30T02:35:48;8.20;;;6.67;;
30998;SDS011;20549;50.042;8.968;2024-01-30T02:38:15;10.67;;;6.20;;
30998;SDS011;20549;50.042;8.968;2024-01-30T02:40:41;8.50;;;6.30;;
30998;SDS011;20549;50.042;8.968;2024-01-30T02:43:08;7.27;;;6.27;;
30998;SDS011;20549;50.042;8.968;2024-01-30T02:45:35;7.10;;;6.40;;
30998;SDS011;20549;50.042;8.968;2024-01-30T02:48:01;7.47;;;6.70;;
30998;SDS011;20549;50.042;8.968;2024-01-30T02:50:28;9.07;;;6.80;;
30998;SDS011;20549;50.042;8.968;2024-01-30T02:52:54;9.13;;;7.07;;
30998;SDS011;20549;50.042;8.968;2024-01-30T02:55:21;6.50;;;5.80;;
30998;SDS011;20549;50.042;8.968;2024-01-30T02:57:48;6.67;;;6.03;;
30998;SDS011;20549;50.042;8.968;2024-01-30T03:00:14;7.70;;;6.47;;
30998;SDS011;20549;50.042;8.968;2024-01-30T03:02:41;7.00;;;6.30;;
30998;SDS011;20549;50.042;8.968;2024-01-30T03:05:07;7.03;;;5.97;;
30998;SDS011;20549;50.042;8.968;2024-01-30T03:07:34;6.50;;;5.30;;
30998;SDS011;20549;50.042;8.968;2024-01-30T03:10:00;8.27;;;6.27;;
30998;SDS011;20549;50.042;8.968;2024-01-30T03:12:27;7.93;;;6.53;;
30998;SDS011;20549;50.042;8.968;2024-01-30T03:14:54;8.33;;;6.17;;
30998;SDS011;20549;50.042;8.968;2024-01-30T03:17:20;7.73;;;5.67;;
30998;SDS011;20549;50.042;8.968;2024-01-30T03:19:47;8.87;;;6.03;;
30998;SDS011;20549;50.042;8.968;2024-01-30T03:22:13;8.60;;;6.53;;
30998;SDS011;20549;50.042;8.968;2024-01-30T03:24:40;7.00;;;6.13;;
30998;SDS011;20549;50.042;8.968;2024-01-30T03:27:07;6.27;;;5.67;;
30998;SDS011;20549;50.042;8.968;2024-01-30T03:29:33;7.87;;;5.97;;
30998;SDS011;20549;50.042;8.968;2024-01-30T03:32:00;7.30;;;6.33;;
30998;SDS011;20549;50.042;8.968;2024-01-30T03:34:26;7.17;;;6.17;;
30998;SDS011;20549;50.042;8.968;2024-01-30T03:36:53;8.83;;;6.00;;
30998;SDS011;20549;50.042;8.968;2024-01-30T03:39:19;6.23;;;5.47;;
30998;SDS011;20549;50.042;8.968;2024-01-30T03:41:46;7.37;;;6.07;;
30998;SDS011;20549;50.042;8.968;2024-01-30T03:44:13;7.90;;;6.33;;
30998;SDS011;20549;50.042;8.968;2024-01-30T03:46:39;6.67;;;5.60;;
30998;SDS011;20549;50.042;8.968;2024-01-30T03:49:06;8.90;;;6.40;;
30998;SDS011;20549;50.042;8.968;2024-01-30T03:51:32;7.10;;;5.93;;
30998;SDS011;20549;50.042;8.968;2024-01-30T03:53:59;8.30;;;6.13;;
30998;SDS011;20549;50.042;8.968;2024-01-30T03:56:26;9.67;;;6.63;;
30998;SDS011;20549;50.042;8.968;2024-01-30T03:58:52;6.80;;;6.03;;
30998;SDS011;20549;50.042;8.968;2024-01-30T04:01:19;7.30;;;6.60;;
30998;SDS011;20549;50.042;8.968;2024-01-30T04:03:45;9.07;;;5.83;;
30998;SDS011;20549;50.042;8.968;2024-01-30T04:06:12;8.93;;;6.63;;
30998;SDS011;20549;50.042;8.968;2024-01-30T04:08:38;7.57;;;5.93;;
30998;SDS011;20549;50.042;8.968;2024-01-30T04:11:05;7.80;;;6.20;;
30998;SDS011;20549;50.042;8.968;2024-01-30T04:13:35;6.83;;;5.90;;
30998;SDS011;20549;50.042;8.968;2024-01-30T04:16:02;7.00;;;6.10;;
30998;SDS011;20549;50.042;8.968;2024-01-30T04:18:28;6.00;;;5.40;;
30998;SDS011;20549;50.042;8.968;2024-01-30T04:20:55;12.23;;;6.40;;
30998;SDS011;20549;50.042;8.968;2024-01-30T04:23:21;8.33;;;6.07;;
30998;SDS011;20549;50.042;8.968;2024-01-30T04:25:48;7.43;;;6.50;;
30998;SDS011;20549;50.042;8.968;2024-01-30T04:28:14;6.07;;;5.40;;
30998;SDS011;20549;50.042;8.968;2024-01-30T04:30:41;6.93;;;6.23;;
30998;SDS011;20549;50.042;8.968;2024-01-30T04:33:07;7.17;;;5.80;;
30998;SDS011;20549;50.042;8.968;2024-01-30T04:35:34;5.67;;;5.17;;
30998;SDS011;20549;50.042;8.968;2024-01-30T04:38:01;6.67;;;5.80;;
30998;SDS011;20549;50.042;8.968;2024-01-30T04:40:27;6.10;;;5.50;;
30998;SDS011;20549;50.042;8.968;2024-01-30T04:42:54;7.10;;;6.40;;
30998;SDS011;20549;50.042;8.968;2024-01-30T04:45:20;9.10;;;6.10;;
30998;SDS011;20549;50.042;8.968;2024-01-30T04:47:47;6.43;;;5.83;;
30998;SDS011;20549;50.042;8.968;2024-01-30T04:50:13;6.43;;;5.83;;
30998;SDS011;20549;50.042;8.968;2024-01-30T04:52:40;7.33;;;5.93;;
30998;SDS011;20549;50.042;8.968;2024-01-30T04:55:07;5.80;;;5.20;;
30998;SDS011;20549;50.042;8.968;2024-01-30T04:57:33;7.23;;;6.23;;
30998;SDS011;20549;50.042;8.968;2024-01-30T05:00:00;7.80;;;5.97;;
30998;SDS011;20549;50.042;8.968;2024-01-30T05:02:26;7.53;;;5.93;;
30998;SDS011;20549;50.042;8.968;2024-01-30T05:04:53;7.10;;;5.97;;
30998;SDS011;20549;50.042;8.968;2024-01-30T05:07:20;9.27;;;6.27;;
30998;SDS011;20549;50.042;8.968;2024-01-30T05:09:46;7.13;;;6.27;;
30998;SDS011;20549;50.042;8.968;2024-01-30T05:12:13;10.43;;;6.00;;
30998;SDS011;20549;50.042;8.968;2024-01-30T05:14:39;7.13;;;6.43;;
30998;SDS011;20549;50.042;8.968;2024-01-30T05:17:06;6.83;;;6.23;;
30998;SDS011;20549;50.042;8.968;2024-01-30T05:19:33;11.10;;;6.03;;
30998;SDS011;20549;50.042;8.968;2024-01-30T05:21:59;7.47;;;6.13;;
30998;SDS011;20549;50.042;8.968;2024-01-30T05:24:26;7.07;;;6.23;;
30998;SDS011;20549;50.042;8.968;2024-01-30T05:26:52;7.13;;;5.93;;
30998;SDS011;20549;50.042;8.968;2024-01-30T05:29:19;9.30;;;6.00;;
30998;SDS011;20549;50.042;8.968;2024-01-30T05:31:45;7.43;;;6.00;;
30998;SDS011;20549;50.042;8.968;2024-01-30T05:34:12;7.57;;;6.07;;
30998;SDS011;20549;50.042;8.968;2024-01-30T05:36:39;6.67;;;5.97;;
30998;SDS011;20549;50.042;8.968;2024-01-30T05:39:05;8.50;;;6.20;;
30998;SDS011;20549;50.042;8.968;2024-01-30T05:41:32;6.53;;;5.93;;
30998;SDS011;20549;50.042;8.968;2024-01-30T05:43:58;8.60;;;6.33;;
30998;SDS011;20549;50.042;8.968;2024-01-30T05:46:25;8.23;;;6.37;;
30998;SDS011;20549;50.042;8.968;2024-01-30T05:48:52;9.67;;;6.23;;
30998;SDS011;20549;50.042;8.968;2024-01-30T05:51:18;7.53;;;6.73;;
30998;SDS011;20549;50.042;8.968;2024-01-30T05:53:45;10.90;;;8.43;;
30998;SDS011;20549;50.042;8.968;2024-01-30T05:56:11;10.30;;;7.77;;
30998;SDS011;20549;50.042;8.968;2024-01-30T05:58:38;9.47;;;8.40;;
30998;SDS011;20549;50.042;8.968;2024-01-30T06:01:07;10.60;;;6.80;;
30998;SDS011;20549;50.042;8.968;2024-01-30T06:03:37;7.83;;;6.87;;
30998;SDS011;20549;50.042;8.968;2024-01-30T06:06:03;10.53;;;8.50;;
30998;SDS011;20549;50.042;8.968;2024-01-30T06:08:30;11.83;;;7.90;;
30998;SDS011;20549;50.042;8.968;2024-01-30T06:10:56;11.47;;;8.20;;
30998;SDS011;20549;50.042;8.968;2024-01-30T06:13:23;8.63;;;7.03;;
30998;SDS011;20549;50.042;8.968;2024-01-30T06:15:49;9.33;;;7.30;;
30998;SDS011;20549;50.042;8.968;2024-01-30T06:18:16;10.70;;;7.00;;
30998;SDS011;20549;50.042;8.968;2024-01-30T06:20:43;7.93;;;7.10;;
30998;SDS011;20549;50.042;8.968;2024-01-30T06:23:09;7.77;;;6.87;;
30998;SDS011;20549;50.042;8.968;2024-01-30T06:25:36;8.20;;;6.63;;
30998;SDS011;20549;50.042;8.968;2024-01-30T06:28:02;7.97;;;6.90;;
30998;SDS011;20549;50.042;8.968;2024-01-30T06:30:29;8.07;;;6.50;;
30998;SDS011;20549;50.042;8.968;2024-01-30T06:32:56;9.40;;;7.33;;
30998;SDS011;20549;50.042;8.968;2024-01-30T06:35:22;8.70;;;6.57;;
30998;SDS011;20549;50.042;8.968;2024-01-30T06:37:49;8.53;;;6.30;;
30998;SDS011;20549;50.042;8.968;2024-01-30T06:40:15;9.17;;;6.73;;
30998;SDS011;20549;50.042;8.968;2024-01-30T06:42:42;8.03;;;6.57;;
30998;SDS011;20549;50.042;8.968;2024-01-30T06:45:09;6.90;;;5.83;;
30998;SDS011;20549;50.042;8.968;2024-01-30T06:47:35;8.13;;;6.77;;
30998;SDS011;20549;50.042;8.968;2024-01-30T06:50:02;8.73;;;6.80;;
30998;SDS011;20549;50.042;8.968;2024-01-30T06:52:28;8.07;;;6.87;;
30998;SDS011;20549;50.042;8.968;2024-01-30T06:54:55;7.63;;;6.53;;
30998;SDS011;20549;50.042;8.968;2024-01-30T06:57:21;7.50;;;6.70;;
30998;SDS011;20549;50.042;8.968;2024-01-30T06:59:48;7.10;;;6.40;;
30998;SDS011;20549;50.042;8.968;2024-01-30T07:02:15;8.50;;;7.00;;
30998;SDS011;20549;50.042;8.968;2024-01-30T07:04:41;8.27;;;6.60;;
30998;SDS011;20549;50.042;8.968;2024-01-30T07:07:08;7.70;;;5.93;;
30998;SDS011;20549;50.042;8.968;2024-01-30T07:09:34;6.90;;;6.17;;
30998;SDS011;20549;50.042;8.968;2024-01-30T07:12:01;9.00;;;7.27;;
30998;SDS011;20549;50.042;8.968;2024-01-30T07:14:28;9.10;;;6.67;;
30998;SDS011;20549;50.042;8.968;2024-01-30T07:16:54;7.90;;;6.57;;
30998;SDS011;20549;50.042;8.968;2024-01-30T07:19:21;7.63;;;6.43;;
30998;SDS011;20549;50.042;8.968;2024-01-30T07:21:47;7.67;;;6.70;;
30998;SDS011;20549;50.042;8.968;2024-01-30T07:24:14;7.17;;;6.47;;
30998;SDS011;20549;50.042;8.968;2024-01-30T07:26:40;7.50;;;6.80;;
30998;SDS011;20549;50.042;8.968;2024-01-30T07:29:07;6.67;;;5.97;;
30998;SDS011;20549;50.042;8.968;2024-01-30T07:31:34;9.83;;;7.73;;
30998;SDS011;20549;50.042;8.968;2024-01-30T07:34:00;13.47;;;8.83;;
30998;SDS011;20549;50.042;8.968;2024-01-30T07:36:27;10.53;;;8.00;;
30998;SDS011;20549;50.042;8.968;2024-01-30T07:38:53;11.80;;;8.10;;
30998;SDS011;20549;50.042;8.968;2024-01-30T07:41:20;11.07;;;8.47;;
30998;SDS011;20549;50.042;8.968;2024-01-30T07:43:47;10.73;;;9.03;;
30998;SDS011;20549;50.042;8.968;2024-01-30T07:46:13;10.40;;;8.27;;
30998;SDS011;20549;50.042;8.968;2024-01-30T07:48:40;10.80;;;8.03;;
30998;SDS011;20549;50.042;8.968;2024-01-30T07:51:06;8.23;;;7.03;;
30998;SDS011;20549;50.042;8.968;2024-01-30T07:53:33;9.37;;;7.10;;
30998;SDS011;20549;50.042;8.968;2024-01-30T07:55:59;7.90;;;6.83;;
30998;SDS011;20549;50.042;8.968;2024-01-30T07:58:26;7.37;;;6.53;;
30998;SDS011;20549;50.042;8.968;2024-01-30T08:00:53;7.83;;;6.70;;
30998;SDS011;20549;50.042;8.968;2024-01-30T08:03:19;7.33;;;6.60;;
30998;SDS011;20549;50.042;8.968;2024-01-30T08:05:46;7.93;;;6.67;;
30998;SDS011;20549;50.042;8.968;2024-01-30T08:08:12;8.57;;;7.67;;
30998;SDS011;20549;50.042;8.968;2024-01-30T08:10:39;11.20;;;7.93;;
30998;SDS011;20549;50.042;8.968;2024-01-30T08:13:06;9.73;;;7.37;;
30998;SDS011;20549;50.042;8.968;2024-01-30T08:15:32;8.97;;;7.77;;
30998;SDS011;20549;50.042;8.968;2024-01-30T08:17:59;8.70;;;7.20;;
30998;SDS011;20549;50.042;8.968;2024-01-30T08:20:25;7.60;;;6.80;;
30998;SDS011;20549;50.042;8.968;2024-01-30T08:22:52;9.77;;;6.73;;
30998;SDS011;20549;50.042;8.968;2024-01-30T08:25:18;6.90;;;6.20;;
30998;SDS011;20549;50.042;8.968;2024-01-30T08:27:45;8.37;;;6.77;;
30998;SDS011;20549;50.042;8.968;2024-01-30T08:30:12;7.53;;;6.70;;
30998;SDS011;20549;50.042;8.968;2024-01-30T08:32:38;6.83;;;6.23;;
30998;SDS011;20549;50.042;8.968;2024-01-30T08:35:05;7.17;;;6.30;;
30998;SDS011;20549;50.042;8.968;2024-01-30T08:37:31;8.27;;;6.67;;
30998;SDS011;20549;50.042;8.968;2024-01-30T08:39:58;7.13;;;6.43;;
30998;SDS011;20549;50.042;8.968;2024-01-30T08:42:25;7.50;;;6.70;;
30998;SDS011;20549;50.042;8.968;2024-01-30T08:44:51;7.83;;;6.83;;
30998;SDS011;20549;50.042;8.968;2024-01-30T08:47:18;7.73;;;6.70;;
30998;SDS011;20549;50.042;8.968;2024-01-30T08:49:44;7.67;;;6.60;;
30998;SDS011;20549;50.042;8.968;2024-01-30T08:52:11;7.00;;;6.30;;
30998;SDS011;20549;50.042;8.968;2024-01-30T08:54:37;9.00;;;6.77;;
30998;SDS011;20549;50.042;8.968;2024-01-30T08:57:04;8.90;;;6.87;;
30998;SDS011;20549;50.042;8.968;2024-01-30T08:59:31;7.77;;;6.97;;
30998;SDS011;20549;50.042;8.968;2024-01-30T09:01:57;8.47;;;6.90;;
30998;SDS011;20549;50.042;8.968;2024-01-30T09:04:24;10.10;;;6.87;;
30998;SDS011;20549;50.042;8.968;2024-01-30T09:06:50;8.03;;;6.37;;
30998;SDS011;20549;50.042;8.968;2024-01-30T09:09:17;7.67;;;6.70;;
30998;SDS011;20549;50.042;8.968;2024-01-30T09:11:44;6.50;;;5.90;;
30998;SDS011;20549;50.042;8.968;2024-01-30T09:14:10;8.33;;;6.23;;
30998;SDS011;20549;50.042;8.968;2024-01-30T09:16:37;6.33;;;5.73;;
30998;SDS011;20549;50.042;8.968;2024-01-30T09:19:03;7.33;;;6.23;;
30998;SDS011;20549;50.042;8.968;2024-01-30T09:21:30;7.27;;;6.07;;
30998;SDS011;20549;50.042;8.968;2024-01-30T09:24:01;7.87;;;7.07;;
30998;SDS011;20549;50.042;8.968;2024-01-30T09:26:23;7.63;;;6.63;;
30998;SDS011;20549;50.042;8.968;2024-01-30T09:28:50;6.80;;;6.20;;
30998;SDS011;20549;50.042;8.968;2024-01-30T09:31:16;7.17;;;6.20;;
30998;SDS011;20549;50.042;8.968;2024-01-30T09:33:43;7.77;;;6.47;;
30998;SDS011;20549;50.042;8.968;2024-01-30T09:39:31;6.70;;;5.87;;
30998;SDS011;20549;50.042;8.968;2024-01-30T09:42:02;6.97;;;6.07;;
30998;SDS011;20549;50.042;8.968;2024-01-30T09:44:43;7.67;;;6.97;;
30998;SDS011;20549;50.042;8.968;2024-01-30T09:47:09;7.20;;;6.30;;
30998;SDS011;20549;50.042;8.968;2024-01-30T09:49:35;7.47;;;6.27;;
30998;SDS011;20549;50.042;8.968;2024-01-30T09:52:02;8.03;;;7.10;;
30998;SDS011;20549;50.042;8.968;2024-01-30T09:54:31;6.43;;;5.83;;
30998;SDS011;20549;50.042;8.968;2024-01-30T09:56:58;7.20;;;6.30;;
30998;SDS011;20549;50.042;8.968;2024-01-30T09:59:24;7.00;;;6.20;;
30998;SDS011;20549;50.042;8.968;2024-01-30T10:01:51;7.93;;;6.83;;
30998;SDS011;20549;50.042;8.968;2024-01-30T10:04:18;7.20;;;6.50;;
30998;SDS011;20549;50.042;8.968;2024-01-30T10:06:44;7.13;;;6.50;;
30998;SDS011;20549;50.042;8.968;2024-01-30T10:09:11;9.43;;;7.23;;
30998;SDS011;20549;50.042;8.968;2024-01-30T10:11:37;7.67;;;6.70;;
30998;SDS011;20549;50.042;8.968;2024-01-30T10:14:04;8.03;;;6.23;;
30998;SDS011;20549;50.042;8.968;2024-01-30T10:16:31;8.07;;;6.50;;
30998;SDS011;20549;50.042;8.968;2024-01-30T10:18:57;8.10;;;7.13;;
30998;SDS011;20549;50.042;8.968;2024-01-30T10:21:24;9.33;;;6.97;;
30998;SDS011;20549;50.042;8.968;2024-01-30T10:23:50;7.40;;;6.47;;
30998;SDS011;20549;50.042;8.968;2024-01-30T10:26:17;7.23;;;6.53;;
30998;SDS011;20549;50.042;8.968;2024-01-30T10:28:43;7.93;;;7.20;;
30998;SDS011;20549;50.042;8.968;2024-01-30T10:31:10;8.67;;;7.00;;
30998;SDS011;20549;50.042;8.968;2024-01-30T10:33:37;6.70;;;5.97;;
30998;SDS011;20549;50.042;8.968;2024-01-30T10:36:04;6.87;;;6.13;;
30998;SDS011;20549;50.042;8.968;2024-01-30T10:38:30;8.97;;;6.87;;
30998;SDS011;20549;50.042;8.968;2024-01-30T10:40:57;7.20;;;6.50;;
30998;SDS011;20549;50.042;8.968;2024-01-30T10:43:24;6.70;;;6.10;;
30998;SDS011;20549;50.042;8.968;2024-01-30T10:45:50;7.55;;;6.00;;
30998;SDS011;20549;50.042;8.968;2024-01-30T10:48:16;7.63;;;6.47;;
30998;SDS011;20549;50.042;8.968;2024-01-30T10:50:43;7.23;;;6.50;;
30998;SDS011;20549;50.042;8.968;2024-01-30T10:53:09;7.33;;;6.60;;
30998;SDS011;20549;50.042;8.968;2024-01-30T10:55:36;6.37;;;5.78;;
30998;SDS011;20549;50.042;8.968;2024-01-30T10:58:03;8.97;;;6.93;;
30998;SDS011;20549;50.042;8.968;2024-01-30T11:00:29;11.03;;;7.45;;
30998;SDS011;20549;50.042;8.968;2024-01-30T11:02:56;7.50;;;6.70;;
30998;SDS011;20549;50.042;8.968;2024-01-30T11:05:25;7.00;;;6.23;;
30998;SDS011;20549;50.042;8.968;2024-01-30T11:07:52;7.20;;;6.17;;
30998;SDS011;20549;50.042;8.968;2024-01-30T11:10:18;8.58;;;6.80;;
30998;SDS011;20549;50.042;8.968;2024-01-30T11:12:45;6.53;;;5.92;;
30998;SDS011;20549;50.042;8.968;2024-01-30T11:15:15;6.80;;;6.12;;
30998;SDS011;20549;50.042;8.968;2024-01-30T11:17:50;5.97;;;5.37;;
30998;SDS011;20549;50.042;8.968;2024-01-30T11:20:19;6.40;;;5.80;;
30998;SDS011;20549;50.042;8.968;2024-01-30T11:22:44;7.65;;;6.10;;
30998;SDS011;20549;50.042;8.968;2024-01-30T11:25:13;5.95;;;5.35;;
30998;SDS011;20549;50.042;8.968;2024-01-30T11:27:39;9.30;;;6.42;;
30998;SDS011;20549;50.042;8.968;2024-01-30T11:30:05;6.92;;;5.87;;
30998;SDS011;20549;50.042;8.968;2024-01-30T11:32:32;6.33;;;5.42;;
30998;SDS011;20549;50.042;8.968;2024-01-30T11:34:59;6.47;;;5.70;;
30998;SDS011;20549;50.042;8.968;2024-01-30T11:37:25;8.58;;;6.72;;
30998;SDS011;20549;50.042;8.968;2024-01-30T11:39:53;6.60;;;6.00;;
30998;SDS011;20549;50.042;8.968;2024-01-30T11:42:19;6.25;;;5.65;;
30998;SDS011;20549;50.042;8.968;2024-01-30T11:44:48;5.77;;;5.27;;
30998;SDS011;20549;50.042;8.968;2024-01-30T11:47:15;8.43;;;6.78;;
30998;SDS011;20549;50.042;8.968;2024-01-30T11:49:41;9.00;;;7.37;;
30998;SDS011;20549;50.042;8.968;2024-01-30T11:52:08;7.83;;;6.65;;
30998;SDS011;20549;50.042;8.968;2024-01-30T11:54:34;8.98;;;6.83;;
30998;SDS011;20549;50.042;8.968;2024-01-30T11:57:01;6.58;;;5.87;;
30998;SDS011;20549;50.042;8.968;2024-01-30T11:59:28;6.40;;;5.80;;
30998;SDS011;20549;50.042;8.968;2024-01-30T12:01:54;6.08;;;5.47;;
30998;SDS011;20549;50.042;8.968;2024-01-30T12:04:21;5.83;;;5.25;;
30998;SDS011;20549;50.042;8.968;2024-01-30T12:06:50;7.00;;;5.22;;
30998;SDS011;20549;50.042;8.968;2024-01-30T12:09:14;5.78;;;5.20;;
30998;SDS011;20549;50.042;8.968;2024-01-30T12:11:45;5.42;;;4.90;;
30998;SDS011;20549;50.042;8.968;2024-01-30T12:14:11;6.08;;;5.20;;
30998;SDS011;20549;50.042;8.968;2024-01-30T12:16:38;5.60;;;5.10;;
30998;SDS011;20549;50.042;8.968;2024-01-30T12:19:04;5.70;;;5.17;;
30998;SDS011;20549;50.042;8.968;2024-01-30T12:21:31;4.85;;;4.45;;
30998;SDS011;20549;50.042;8.968;2024-01-30T12:23:57;5.35;;;4.85;;
30998;SDS011;20549;50.042;8.968;2024-01-30T12:26:24;6.50;;;5.28;;
30998;SDS011;20549;50.042;8.968;2024-01-30T12:28:54;5.97;;;5.37;;
30998;SDS011;20549;50.042;8.968;2024-01-30T12:31:31;9.15;;;4.75;;
30998;SDS011;20549;50.042;8.968;2024-01-30T12:33:55;5.30;;;4.80;;
30998;SDS011;20549;50.042;8.968;2024-01-30T12:36:22;4.92;;;4.50;;
30998;SDS011;20549;50.042;8.968;2024-01-30T12:38:48;6.15;;;4.72;;
30998;SDS011;20549;50.042;8.968;2024-01-30T12:41:15;4.83;;;4.42;;
30998;SDS011;20549;50.042;8.968;2024-01-30T12:43:42;5.40;;;4.90;;
30998;SDS011;20549;50.042;8.968;2024-01-30T12:46:08;6.45;;;5.33;;
30998;SDS011;20549;50.042;8.968;2024-01-30T12:48:35;5.30;;;4.80;;
30998;SDS011;20549;50.042;8.968;2024-01-30T12:51:01;5.30;;;4.80;;
30998;SDS011;20549;50.042;8.968;2024-01-30T12:53:28;6.05;;;5.17;;
30998;SDS011;20549;50.042;8.968;2024-01-30T12:55:54;7.97;;;5.10;;
30998;SDS011;20549;50.042;8.968;2024-01-30T12:58:21;5.45;;;4.95;;
30998;SDS011;20549;50.042;8.968;2024-01-30T13:00:48;5.72;;;4.72;;
30998;SDS011;20549;50.042;8.968;2024-01-30T13:03:14;5.05;;;4.65;;
30998;SDS011;20549;50.042;8.968;2024-01-30T13:05:41;7.62;;;5.45;;
30998;SDS011;20549;50.042;8.968;2024-01-30T13:08:07;5.72;;;5.00;;
30998;SDS011;20549;50.042;8.968;2024-01-30T13:10:34;5.72;;;5.20;;
30998;SDS011;20549;50.042;8.968;2024-01-30T13:13:01;5.33;;;4.83;;
30998;SDS011;20549;50.042;8.968;2024-01-30T13:15:27;5.80;;;5.28;;
30998;SDS011;20549;50.042;8.968;2024-01-30T13:20:29;5.85;;;5.00;;
30998;SDS011;20549;50.042;8.968;2024-01-30T13:22:56;5.30;;;4.80;;
30998;SDS011;20549;50.042;8.968;2024-01-30T13:25:22;5.58;;;4.85;;
30998;SDS011;20549;50.042;8.968;2024-01-30T13:27:49;5.25;;;4.75;;
30998;SDS011;20549;50.042;8.968;2024-01-30T13:30:16;5.15;;;4.65;;
30998;SDS011;20549;50.042;8.968;2024-01-30T13:32:42;5.33;;;4.70;;
30998;SDS011;20549;50.042;8.968;2024-01-30T13:35:09;5.50;;;4.80;;
30998;SDS011;20549;50.042;8.968;2024-01-30T13:37:35;5.45;;;4.92;;
30998;SDS011;20549;50.042;8.968;2024-01-30T13:40:05;6.35;;;5.10;;
30998;SDS011;20549;50.042;8.968;2024-01-30T13:42:38;5.25;;;4.75;;
30998;SDS011;20549;50.042;8.968;2024-01-30T13:45:04;7.50;;;4.90;;
30998;SDS011;20549;50.042;8.968;2024-01-30T13:47:31;8.85;;;5.45;;
30998;SDS011;20549;50.042;8.968;2024-01-30T13:49:57;5.00;;;4.50;;
30998;SDS011;20549;50.042;8.968;2024-01-30T13:52:24;5.97;;;4.83;;
30998;SDS011;20549;50.042;8.968;2024-01-30T13:54:50;5.47;;;4.85;;
30998;SDS011;20549;50.042;8.968;2024-01-30T13:57:17;6.53;;;5.15;;
30998;SDS011;20549;50.042;8.968;2024-01-30T13:59:43;5.72;;;5.22;;
30998;SDS011;20549;50.042;8.968;2024-01-30T14:02:10;5.83;;;5.12;;
30998;SDS011;20549;50.042;8.968;2024-01-30T14:04:37;5.12;;;4.72;;
30998;SDS011;20549;50.042;8.968;2024-01-30T14:07:04;4.50;;;4.10;;
30998;SDS011;20549;50.042;8.968;2024-01-30T14:09:30;5.70;;;4.72;;
30998;SDS011;20549;50.042;8.968;2024-01-30T14:11:56;5.25;;;4.75;;
30998;SDS011;20549;50.042;8.968;2024-01-30T14:14:23;7.25;;;5.30;;
30998;SDS011;20549;50.042;8.968;2024-01-30T14:16:50;5.92;;;5.33;;
30998;SDS011;20549;50.042;8.968;2024-01-30T14:19:16;6.45;;;5.55;;
30998;SDS011;20549;50.042;8.968;2024-01-30T14:21:43;5.58;;;5.08;;
30998;SDS011;20549;50.042;8.968;2024-01-30T14:24:09;5.80;;;4.85;;
30998;SDS011;20549;50.042;8.968;2024-01-30T14:26:36;5.95;;;4.97;;
30998;SDS011;20549;50.042;8.968;2024-01-30T14:29:03;5.40;;;4.85;;
30998;SDS011;20549;50.042;8.968;2024-01-30T14:31:29;5.33;;;4.72;;
30998;SDS011;20549;50.042;8.968;2024-01-30T14:33:56;5.12;;;4.62;;
30998;SDS011;20549;50.042;8.968;2024-01-30T14:36:22;5.80;;;5.20;;
30998;SDS011;20549;50.042;8.968;2024-01-30T14:38:49;6.20;;;5.17;;
30998;SDS011;20549;50.042;8.968;2024-01-30T14:41:16;5.80;;;5.20;;
30998;SDS011;20549;50.042;8.968;2024-01-30T14:43:42;5.60;;;5.15;;
30998;SDS011;20549;50.042;8.968;2024-01-30T14:46:09;5.97;;;5.40;;
30998;SDS011;20549;50.042;8.968;2024-01-30T14:48:35;8.13;;;5.12;;
30998;SDS011;20549;50.042;8.968;2024-01-30T14:51:02;5.90;;;5.33;;